createdAt,value
2022-12-23T00:01:42.377Z,5.22
2022-12-23T00:04:10.017Z,5.68
2022-12-23T00:06:37.670Z,5.32
2022-12-23T00:09:06.619Z,7.70
2022-12-23T00:11:34.235Z,9.57
2022-12-23T00:14:21.799Z,7.82
2022-12-23T00:16:51.334Z,6.22
2022-12-23T00:19:19.131Z,4.90
2022-12-23T00:21:48.232Z,5.47
2022-12-23T00:24:17.329Z,5.30
2022-12-23T00:26:45.000Z,5.55
2022-12-23T00:29:12.568Z,5.53
2022-12-23T00:31:40.166Z,6.95
2022-12-23T00:34:07.778Z,9.98
2022-12-23T00:36:37.440Z,8.95
2022-12-23T00:39:22.799Z,9.07
2022-12-23T00:42:09.713Z,9.80
2022-12-23T00:44:37.314Z,8.63
2022-12-23T00:47:04.947Z,7.30
2022-12-23T00:49:43.924Z,8.23
2022-12-23T00:52:15.369Z,6.72
2022-12-23T00:54:43.941Z,7.68
2022-12-23T00:57:12.880Z,12.95
2022-12-23T00:59:40.622Z,12.10
2022-12-23T01:02:28.053Z,12.27
2022-12-23T01:05:13.277Z,7.07
2022-12-23T01:07:42.526Z,5.28
2022-12-23T01:10:10.887Z,3.42
2022-12-23T01:12:39.786Z,2.70
2022-12-23T01:15:08.688Z,3.97
2022-12-23T01:17:36.285Z,2.92
2022-12-23T01:20:04.315Z,2.30
2022-12-23T01:22:31.812Z,2.57
2022-12-23T01:24:59.408Z,1.85
2022-12-23T01:27:26.983Z,1.08
2022-12-23T01:29:55.843Z,2.08
2022-12-23T01:32:23.409Z,0.75
2022-12-23T01:34:51.038Z,1.53
2022-12-23T01:37:18.680Z,1.00
2022-12-23T01:39:46.285Z,0.50
2022-12-23T01:42:32.614Z,0.20
2022-12-23T01:45:03.000Z,0.20
2022-12-23T01:47:40.076Z,0.40
2022-12-23T01:50:13.635Z,1.00
2022-12-23T01:52:45.884Z,0.95
2022-12-23T01:55:18.016Z,0.70
2022-12-23T01:57:47.843Z,1.50
2022-12-23T02:00:35.146Z,0.93
2022-12-23T02:03:20.535Z,0.80
2022-12-23T02:05:49.308Z,0.73
2022-12-23T02:08:36.766Z,1.00
2022-12-23T02:11:23.927Z,0.57
2022-12-23T02:14:20.447Z,0.40
2022-12-23T02:16:55.921Z,0.77
2022-12-23T02:19:41.949Z,0.73
2022-12-23T02:22:32.519Z,1.23
2022-12-23T02:25:44.010Z,0.60
2022-12-23T02:28:32.843Z,1.48
2022-12-23T02:31:10.288Z,0.20
2022-12-23T02:33:50.223Z,0.52
2022-12-23T02:36:37.488Z,1.40
2022-12-23T02:39:10.266Z,0.80
2022-12-23T02:41:45.563Z,0.90
2022-12-23T02:44:21.952Z,0.38
2022-12-23T02:46:55.362Z,0.85
2022-12-23T02:49:27.537Z,1.83
2022-12-23T02:51:58.753Z,1.25
2022-12-23T02:54:31.157Z,0.82
2022-12-23T02:57:01.392Z,0.73
2022-12-23T02:59:33.163Z,1.00
2022-12-23T03:02:02.381Z,0.50
2022-12-23T03:04:30.012Z,0.63
2022-12-23T03:07:06.970Z,0.63
2022-12-23T03:09:47.962Z,1.15
2022-12-23T03:12:26.941Z,0.50
2022-12-23T03:15:14.025Z,0.38
2022-12-23T03:18:00.984Z,1.75
2022-12-23T03:20:35.734Z,0.50
2022-12-23T03:23:09.259Z,0.40
2022-12-23T03:25:41.503Z,0.68
2022-12-23T03:28:14.444Z,1.65
2022-12-23T03:30:47.461Z,1.05
2022-12-23T03:33:20.271Z,0.30
2022-12-23T03:35:52.930Z,0.90
2022-12-23T03:38:20.865Z,1.20
2022-12-23T03:40:53.011Z,0.50
2022-12-23T03:43:24.742Z,1.70
2022-12-23T03:45:58.752Z,0.55
2022-12-23T03:48:33.785Z,0.70
2022-12-23T03:51:05.585Z,0.52
2022-12-23T03:53:36.920Z,0.63
2022-12-23T03:56:08.700Z,0.60
2022-12-23T03:58:42.215Z,0.63
2022-12-23T04:01:18.268Z,1.35
2022-12-23T04:03:56.047Z,0.40
2022-12-23T04:06:27.494Z,1.20
2022-12-23T04:08:55.290Z,1.58
2022-12-23T04:11:22.885Z,0.90
2022-12-23T04:13:50.499Z,1.20
2022-12-23T04:16:18.307Z,0.82
2022-12-23T04:18:45.920Z,0.40
2022-12-23T04:21:14.923Z,2.80
2022-12-23T04:23:42.554Z,2.03
2022-12-23T04:26:10.126Z,1.13
2022-12-23T04:28:37.656Z,0.70
2022-12-23T04:31:05.679Z,2.60
2022-12-23T04:33:33.399Z,1.10
2022-12-23T04:36:01.536Z,1.60
2022-12-23T04:38:30.563Z,1.80
2022-12-23T04:40:58.218Z,1.50
2022-12-23T04:43:25.818Z,0.80
2022-12-23T04:45:53.680Z,1.35
2022-12-23T04:48:21.276Z,2.10
2022-12-23T04:50:48.905Z,0.77
2022-12-23T04:53:16.518Z,1.08
2022-12-23T04:55:45.439Z,0.98
2022-12-23T04:58:13.021Z,0.90
2022-12-23T05:00:40.629Z,1.67
2022-12-23T05:03:08.561Z,0.20
2022-12-23T05:05:36.312Z,0.15
2022-12-23T05:08:05.154Z,0.75
2022-12-23T05:10:32.963Z,1.30
2022-12-23T05:13:01.876Z,0.20
2022-12-23T05:15:29.507Z,0.50
2022-12-23T05:17:57.132Z,0.28
2022-12-23T05:20:26.512Z,0.63
2022-12-23T05:22:54.121Z,0.90
2022-12-23T05:25:21.753Z,1.00
2022-12-23T05:27:49.389Z,0.70
2022-12-23T05:30:18.620Z,1.20
2022-12-23T05:32:46.174Z,1.10
2022-12-23T05:35:13.723Z,1.50
2022-12-23T05:37:41.354Z,0.93
2022-12-23T05:40:10.465Z,1.52
2022-12-23T05:42:38.174Z,2.20
2022-12-23T05:45:06.391Z,1.02
2022-12-23T05:47:35.509Z,0.68
2022-12-23T05:50:03.146Z,2.10
2022-12-23T05:52:30.810Z,2.30
2022-12-23T05:54:58.378Z,1.10
2022-12-23T05:57:26.017Z,1.02
2022-12-23T05:59:53.642Z,1.52
2022-12-23T06:02:22.117Z,1.30
2022-12-23T06:04:51.303Z,0.77
2022-12-23T06:07:18.850Z,1.75
2022-12-23T06:09:46.384Z,2.20
2022-12-23T06:12:13.983Z,1.42
2022-12-23T06:14:41.643Z,1.13
2022-12-23T06:17:09.434Z,3.78
2022-12-23T06:19:37.057Z,3.97
2022-12-23T06:22:06.092Z,2.57
2022-12-23T06:24:33.739Z,1.93
2022-12-23T06:27:01.298Z,2.17
2022-12-23T06:29:29.315Z,4.35
2022-12-23T06:31:56.934Z,2.25
2022-12-23T06:34:24.723Z,1.92
2022-12-23T06:36:52.286Z,1.80
2022-12-23T06:39:21.279Z,2.15
2022-12-23T06:41:49.070Z,1.33
2022-12-23T06:44:16.650Z,2.30
2022-12-23T06:46:44.191Z,2.17
2022-12-23T06:49:13.653Z,1.48
2022-12-23T06:51:41.580Z,0.70
2022-12-23T06:54:11.108Z,1.50
2022-12-23T06:56:40.187Z,1.00
2022-12-23T06:59:07.839Z,2.22
2022-12-23T07:01:35.640Z,1.60
2022-12-23T07:04:03.673Z,1.73
2022-12-23T07:06:31.308Z,1.10
2022-12-23T07:08:58.940Z,0.90
2022-12-23T07:11:26.583Z,0.40
2022-12-23T07:13:55.492Z,0.40
2022-12-23T07:16:23.314Z,0.82
2022-12-23T07:18:50.979Z,0.70
2022-12-23T07:21:28.333Z,0.80
2022-12-23T07:23:56.917Z,1.27
2022-12-23T07:26:24.653Z,0.60
2022-12-23T07:28:52.205Z,1.23
2022-12-23T07:31:21.294Z,1.40
2022-12-23T07:33:48.988Z,1.30
2022-12-23T07:36:16.559Z,1.85
2022-12-23T07:38:44.228Z,0.85
2022-12-23T07:41:11.812Z,0.90
2022-12-23T07:43:40.051Z,1.60
2022-12-23T07:46:08.540Z,1.23
2022-12-23T07:48:37.554Z,1.10
2022-12-23T07:51:05.697Z,1.08
2022-12-23T07:53:33.264Z,0.90
2022-12-23T07:56:00.877Z,1.40
2022-12-23T07:58:28.660Z,1.55
2022-12-23T08:01:01.304Z,5.47
2022-12-23T08:03:29.282Z,2.83
2022-12-23T08:06:02.586Z,3.42
2022-12-23T08:08:30.754Z,14.35
2022-12-23T08:11:00.145Z,11.00
2022-12-23T08:13:27.842Z,3.67
2022-12-23T08:15:56.892Z,4.50
2022-12-23T08:18:24.924Z,4.87
2022-12-23T08:20:56.595Z,11.60
2022-12-23T08:23:26.285Z,6.70
2022-12-23T08:26:00.415Z,9.98
2022-12-23T08:28:28.508Z,4.90
2022-12-23T08:30:56.284Z,7.75
2022-12-23T08:33:23.981Z,9.02
2022-12-23T08:35:55.640Z,9.07
2022-12-23T08:38:23.254Z,5.18
2022-12-23T08:40:52.168Z,9.27
2022-12-23T08:43:20.556Z,5.03
2022-12-23T08:45:48.235Z,3.15
2022-12-23T08:48:16.013Z,2.63
2022-12-23T08:50:46.009Z,3.00
2022-12-23T08:53:14.674Z,1.75
2022-12-23T08:55:44.001Z,4.33
2022-12-23T08:58:14.497Z,4.53
2022-12-23T09:00:42.471Z,6.13
2022-12-23T09:03:10.071Z,6.00
2022-12-23T09:05:41.528Z,3.55
2022-12-23T09:08:09.694Z,2.40
2022-12-23T09:10:42.301Z,4.32
2022-12-23T09:13:10.422Z,4.65
2022-12-23T09:15:43.236Z,3.28
2022-12-23T09:18:11.319Z,2.90
2022-12-23T09:20:39.847Z,1.50
2022-12-23T09:23:07.980Z,3.38
2022-12-23T09:25:36.903Z,3.10
2022-12-23T09:28:05.386Z,3.40
2022-12-23T09:30:33.677Z,29.50
2022-12-23T09:33:02.567Z,26.50
2022-12-23T09:35:30.335Z,15.83
2022-12-23T09:37:57.887Z,8.57
2022-12-23T09:40:25.799Z,5.50
2022-12-23T09:43:07.516Z,6.57
2022-12-23T09:45:51.409Z,5.60
2022-12-23T09:48:26.597Z,4.75
2022-12-23T09:50:54.981Z,5.63
2022-12-23T09:53:24.669Z,2.65
2022-12-23T09:55:57.641Z,7.18
2022-12-23T09:58:30.869Z,5.65
2022-12-23T10:01:10.974Z,5.80
2022-12-23T10:04:00.215Z,5.80
2022-12-23T10:06:30.064Z,4.33
2022-12-23T10:09:02.198Z,5.32
2022-12-23T10:11:37.909Z,4.55
2022-12-23T10:14:18.109Z,4.38
2022-12-23T10:16:50.219Z,5.20
2022-12-23T10:19:26.183Z,4.80
2022-12-23T10:21:59.638Z,5.68
2022-12-23T10:24:32.470Z,5.38
2022-12-23T10:27:04.120Z,5.82
2022-12-23T10:29:33.122Z,5.85
2022-12-23T10:32:13.806Z,7.25
2022-12-23T10:34:52.527Z,3.90
2022-12-23T10:37:28.907Z,5.07
2022-12-23T10:40:11.073Z,3.83
2022-12-23T10:42:43.970Z,3.10
2022-12-23T10:45:24.161Z,2.88
2022-12-23T10:48:06.096Z,3.78
2022-12-23T10:50:50.565Z,3.13
2022-12-23T10:53:28.935Z,1.93
2022-12-23T10:55:57.139Z,3.40
2022-12-23T10:58:26.469Z,2.63
2022-12-23T11:00:57.073Z,2.90
2022-12-23T11:03:29.808Z,1.77
2022-12-23T11:06:00.393Z,3.00
2022-12-23T11:08:31.543Z,2.95
2022-12-23T11:11:01.173Z,2.80
2022-12-23T11:13:36.907Z,3.78
2022-12-23T11:16:24.973Z,2.78
2022-12-23T11:19:04.255Z,2.58
2022-12-23T11:21:34.775Z,2.93
2022-12-23T11:24:19.873Z,3.13
2022-12-23T11:26:50.583Z,1.65
2022-12-23T11:29:24.309Z,3.17
2022-12-23T11:31:52.686Z,1.57
2022-12-23T11:34:22.209Z,1.40
2022-12-23T11:37:00.155Z,1.90
2022-12-23T11:39:33.894Z,2.53
2022-12-23T11:42:12.145Z,1.30
2022-12-23T11:44:43.546Z,2.10
2022-12-23T11:47:26.517Z,1.77
2022-12-23T11:49:55.924Z,3.17
2022-12-23T11:52:26.836Z,4.57
2022-12-23T11:54:56.943Z,5.55
2022-12-23T11:57:30.901Z,3.00
2022-12-23T12:00:02.817Z,2.47
2022-12-23T12:02:36.512Z,2.17
2022-12-23T12:05:14.923Z,3.63
2022-12-23T12:07:44.791Z,2.58
2022-12-23T12:10:19.237Z,3.40
2022-12-23T12:12:52.898Z,5.63
2022-12-23T12:15:34.923Z,7.00
2022-12-23T12:18:05.492Z,4.28
2022-12-23T12:20:38.089Z,3.45
2022-12-23T12:23:11.403Z,2.92
2022-12-23T12:25:44.193Z,4.13
2022-12-23T12:28:15.943Z,4.28
2022-12-23T12:30:50.567Z,3.50
2022-12-23T12:33:24.302Z,4.20
2022-12-23T12:36:04.908Z,4.18
2022-12-23T12:38:39.104Z,4.13
2022-12-23T12:41:15.551Z,5.60
2022-12-23T12:43:49.476Z,4.40
2022-12-23T12:46:27.927Z,2.95
2022-12-23T12:49:00.757Z,5.37
2022-12-23T12:51:32.521Z,6.70
2022-12-23T12:54:06.480Z,4.38
2022-12-23T12:56:41.374Z,4.30
2022-12-23T12:59:17.539Z,4.60
2022-12-23T13:01:54.465Z,3.53
2022-12-23T13:04:44.338Z,5.75
2022-12-23T13:07:24.848Z,5.90
2022-12-23T13:10:02.287Z,6.57
2022-12-23T13:12:45.945Z,7.45
2022-12-23T13:15:22.853Z,6.30
2022-12-23T13:18:09.191Z,5.38
2022-12-23T13:20:43.534Z,6.32
2022-12-23T13:23:42.952Z,6.43
2022-12-23T13:26:21.862Z,5.88
2022-12-23T13:29:01.239Z,6.40
2022-12-23T13:31:40.549Z,6.40
2022-12-23T13:34:21.952Z,4.13
2022-12-23T13:36:58.388Z,3.00
2022-12-23T13:39:42.737Z,1.30
2022-12-23T13:42:19.024Z,1.70
2022-12-23T13:44:47.061Z,1.05
2022-12-23T13:47:20.160Z,1.33
2022-12-23T13:49:58.849Z,1.75
2022-12-23T13:52:39.496Z,0.95
2022-12-23T13:55:21.806Z,2.80
2022-12-23T13:57:59.818Z,2.20
2022-12-23T14:00:31.234Z,4.50
2022-12-23T14:03:17.898Z,0.90
2022-12-23T14:05:46.951Z,1.40
2022-12-23T14:08:28.259Z,1.15
2022-12-23T14:10:59.867Z,0.88
2022-12-23T14:13:32.474Z,0.70
2022-12-23T14:16:27.614Z,0.35
2022-12-23T14:19:15.168Z,1.30
2022-12-23T14:21:51.925Z,0.82
2022-12-23T14:24:44.988Z,0.70
2022-12-23T14:27:36.341Z,0.68
2022-12-23T14:30:14.193Z,0.73
2022-12-23T14:32:49.058Z,0.63
2022-12-23T14:35:26.456Z,0.77
2022-12-23T14:38:23.064Z,0.80
2022-12-23T14:40:55.652Z,0.57
2022-12-23T14:43:43.072Z,0.98
2022-12-23T14:46:59.412Z,0.30
2022-12-23T14:49:40.717Z,0.30
2022-12-23T14:52:47.782Z,1.20
2022-12-23T14:55:54.216Z,1.60
2022-12-23T14:58:35.223Z,0.13
2022-12-23T15:01:08.985Z,1.03
2022-12-23T15:03:45.689Z,1.60
2022-12-23T15:06:18.849Z,0.40
2022-12-23T15:08:48.639Z,1.80
2022-12-23T15:11:23.097Z,0.40
2022-12-23T15:13:53.808Z,0.88
2022-12-23T15:16:30.638Z,1.00
2022-12-23T15:19:02.187Z,0.70
2022-12-23T15:21:32.318Z,1.60
2022-12-23T15:23:59.900Z,1.30
2022-12-23T15:26:30.108Z,2.70
2022-12-23T15:28:59.192Z,1.70
2022-12-23T15:31:30.233Z,0.82
2022-12-23T15:34:04.605Z,0.43
2022-12-23T15:36:37.072Z,0.63
2022-12-23T15:39:10.698Z,0.75
2022-12-23T15:41:45.334Z,1.53
2022-12-23T15:44:16.406Z,1.60
2022-12-23T15:46:44.151Z,9.02
2022-12-23T15:49:13.568Z,3.60
2022-12-23T15:54:36.656Z,22.65
2022-12-23T15:57:05.622Z,5.40
2022-12-23T15:59:37.429Z,10.85
2022-12-23T16:02:32.640Z,1.42
2022-12-23T16:05:03.333Z,4.82
2022-12-23T16:07:35.298Z,2.38
2022-12-23T16:10:06.096Z,3.60
2022-12-23T16:12:35.705Z,9.30
2022-12-23T16:15:04.548Z,17.10
2022-12-23T16:17:33.731Z,7.40
2022-12-23T16:20:26.829Z,14.30
2022-12-23T16:22:57.670Z,6.95
2022-12-23T16:25:27.831Z,7.78
2022-12-23T16:27:57.819Z,2.20
2022-12-23T16:30:31.608Z,1.00
2022-12-23T16:33:02.707Z,4.45
2022-12-23T16:35:36.036Z,6.53
2022-12-23T16:38:15.882Z,8.47
2022-12-23T16:40:44.542Z,4.72
2022-12-23T16:43:12.512Z,5.68
2022-12-23T16:45:40.878Z,5.72
2022-12-23T16:48:12.289Z,5.60
2022-12-23T16:50:41.216Z,2.53
2022-12-23T16:53:12.761Z,5.70
2022-12-23T16:55:46.180Z,4.35
2022-12-23T16:58:17.935Z,7.90
2022-12-23T17:00:45.988Z,1.75
2022-12-23T17:03:17.673Z,2.22
2022-12-23T17:05:47.428Z,6.43
2022-12-23T17:08:15.307Z,3.15
2022-12-23T17:10:44.640Z,1.30
2022-12-23T17:13:14.040Z,16.08
2022-12-23T17:15:41.606Z,6.72
2022-12-23T17:18:13.969Z,5.32
2022-12-23T17:20:42.283Z,2.83
2022-12-23T17:23:26.564Z,5.35
2022-12-23T17:25:54.311Z,5.32
2022-12-23T17:28:22.067Z,11.32
2022-12-23T17:30:53.180Z,9.23
2022-12-23T17:33:20.897Z,11.43
2022-12-23T17:35:48.672Z,7.40
2022-12-23T17:38:17.771Z,13.10
2022-12-23T17:40:47.754Z,7.82
2022-12-23T17:43:16.758Z,11.03
2022-12-23T17:45:45.467Z,9.30
2022-12-23T17:48:20.581Z,6.43
2022-12-23T17:50:50.080Z,3.75
2022-12-23T17:53:20.744Z,5.38
2022-12-23T17:55:48.552Z,10.83
2022-12-23T17:58:16.513Z,6.45
2022-12-23T18:00:44.241Z,7.57
2022-12-23T18:03:22.287Z,6.88
2022-12-23T18:05:52.994Z,14.27
2022-12-23T18:08:26.346Z,20.27
2022-12-23T18:10:53.917Z,11.02
2022-12-23T18:13:22.327Z,16.50
2022-12-23T18:15:51.096Z,12.67
2022-12-23T18:18:27.230Z,46.08
2022-12-23T18:20:57.960Z,12.68
2022-12-23T18:23:29.153Z,8.48
2022-12-23T18:25:58.076Z,2.47
2022-12-23T18:28:26.189Z,9.38
2022-12-23T18:30:56.551Z,4.57
2022-12-23T18:33:28.589Z,3.92
2022-12-23T18:35:56.516Z,4.93
2022-12-23T18:38:24.211Z,6.18
2022-12-23T18:40:54.427Z,5.03
2022-12-23T18:43:24.651Z,3.58
2022-12-23T18:45:54.139Z,6.95
2022-12-23T18:48:22.501Z,5.78
2022-12-23T18:50:50.170Z,6.60
2022-12-23T18:53:23.773Z,5.45
2022-12-23T18:55:53.659Z,4.27
2022-12-23T18:58:22.331Z,6.43
2022-12-23T19:00:52.536Z,8.10
2022-12-23T19:03:23.741Z,5.80
2022-12-23T19:05:52.285Z,5.83
2022-12-23T19:08:26.284Z,7.85
2022-12-23T19:10:56.256Z,7.53
2022-12-23T19:13:24.276Z,10.10
2022-12-23T19:15:52.551Z,9.15
2022-12-23T19:18:22.647Z,8.63
2022-12-23T19:20:50.628Z,5.95
2022-12-23T19:23:18.733Z,7.32
2022-12-23T19:25:54.422Z,6.72
2022-12-23T19:28:24.626Z,8.60
2022-12-23T19:30:52.546Z,6.70
2022-12-23T19:33:20.410Z,8.88
2022-12-23T19:35:48.325Z,7.97
2022-12-23T19:38:16.375Z,7.18
2022-12-23T19:40:44.080Z,9.00
2022-12-23T19:43:11.825Z,6.10
2022-12-23T19:45:41.113Z,7.23
2022-12-23T19:48:09.605Z,5.43
2022-12-23T19:50:37.246Z,6.10
2022-12-23T19:53:04.929Z,6.85
2022-12-23T19:55:32.588Z,4.07
2022-12-23T19:58:00.260Z,5.97
2022-12-23T20:00:27.933Z,5.70
2022-12-23T20:02:59.049Z,7.45
2022-12-23T20:05:27.072Z,6.88
2022-12-23T20:07:54.952Z,6.17
2022-12-23T20:10:22.711Z,7.30
2022-12-23T20:12:50.355Z,8.77
2022-12-23T20:15:18.947Z,6.17
2022-12-23T20:17:46.682Z,6.68
2022-12-23T20:20:15.914Z,9.02
2022-12-23T20:22:43.630Z,6.32
2022-12-23T20:25:11.523Z,7.30
2022-12-23T20:27:39.754Z,6.10
2022-12-23T20:30:08.779Z,6.25
2022-12-23T20:32:36.402Z,8.35
2022-12-23T20:35:04.443Z,8.75
2022-12-23T20:37:33.646Z,8.02
2022-12-23T20:40:01.382Z,7.32
2022-12-23T20:42:29.139Z,8.10
2022-12-23T20:44:56.873Z,7.95
2022-12-23T20:47:24.485Z,10.40
2022-12-23T20:49:52.258Z,11.85
2022-12-23T20:52:20.142Z,11.40
2022-12-23T20:54:49.190Z,10.27
2022-12-23T20:57:16.888Z,14.27
2022-12-23T20:59:44.671Z,11.57
2022-12-23T21:02:14.234Z,12.70
2022-12-23T21:04:41.874Z,15.97
2022-12-23T21:07:09.698Z,13.18
2022-12-23T21:09:37.693Z,11.85
2022-12-23T21:12:07.078Z,13.38
2022-12-23T21:14:35.022Z,15.07
2022-12-23T21:17:02.623Z,18.45
2022-12-23T21:19:30.194Z,15.40
2022-12-23T21:21:58.032Z,13.20
2022-12-23T21:24:25.727Z,15.50
2022-12-23T21:26:56.817Z,14.07
2022-12-23T21:29:26.777Z,20.75
2022-12-23T21:31:54.973Z,12.67
2022-12-23T21:34:22.922Z,13.48
2022-12-23T21:36:50.534Z,15.73
2022-12-23T21:39:18.222Z,13.57
2022-12-23T21:41:45.795Z,14.02
2022-12-23T21:44:14.622Z,15.30
2022-12-23T21:46:43.639Z,14.23
2022-12-23T21:49:11.887Z,15.10
2022-12-23T21:51:41.311Z,15.68
2022-12-23T21:54:11.206Z,16.00
2022-12-23T21:56:39.999Z,13.18
2022-12-23T21:59:13.230Z,15.73
2022-12-23T22:01:41.595Z,12.03
2022-12-23T22:04:10.614Z,15.73
2022-12-23T22:06:43.388Z,16.05
2022-12-23T22:09:13.734Z,17.90
2022-12-23T22:11:41.333Z,14.88
2022-12-23T22:14:11.652Z,14.32
2022-12-23T22:16:39.253Z,15.05
2022-12-23T22:19:08.561Z,13.57
2022-12-23T22:21:39.386Z,11.43
2022-12-23T22:24:07.975Z,15.02
2022-12-23T22:26:36.369Z,12.55
2022-12-23T22:29:05.901Z,14.68
2022-12-23T22:31:37.704Z,14.88
2022-12-23T22:34:06.315Z,16.43
2022-12-23T22:36:34.439Z,14.60
2022-12-23T22:39:03.886Z,14.52
2022-12-23T22:41:31.691Z,16.87
2022-12-23T22:44:00.113Z,15.60
2022-12-23T22:46:28.860Z,15.15
2022-12-23T22:48:56.845Z,15.60
2022-12-23T22:51:27.300Z,15.32
2022-12-23T22:53:55.645Z,17.40
2022-12-23T22:56:26.102Z,17.58
2022-12-23T22:58:54.697Z,13.07
2022-12-23T23:01:24.159Z,23.70
2022-12-23T23:03:57.015Z,24.95
2022-12-23T23:06:25.998Z,18.33
2022-12-23T23:08:54.356Z,18.83
2022-12-23T23:11:23.759Z,15.57
2022-12-23T23:13:51.464Z,18.67
2022-12-23T23:16:19.151Z,17.23
2022-12-23T23:18:46.998Z,18.30
2022-12-23T23:21:15.731Z,14.73
2022-12-23T23:23:43.666Z,13.80
2022-12-23T23:26:12.309Z,12.13
2022-12-23T23:28:41.930Z,18.42
2022-12-23T23:31:40.473Z,37.25
2022-12-23T23:33:58.819Z,13.70
2022-12-23T23:36:26.630Z,16.75
2022-12-23T23:38:54.354Z,15.13
2022-12-23T23:41:23.849Z,14.02
2022-12-23T23:43:53.261Z,10.30
2022-12-23T23:46:20.929Z,9.35
2022-12-23T23:48:48.631Z,10.98
2022-12-23T23:51:16.478Z,11.90
2022-12-23T23:53:44.031Z,12.68
2022-12-23T23:56:11.766Z,12.25
2022-12-23T23:58:39.401Z,14.57
